createdAt,value
2023-01-12T00:00:17.380Z,3.10
2023-01-12T00:01:53.642Z,3.00
2023-01-12T00:02:57.498Z,4.60
2023-01-12T00:04:03.445Z,3.60
2023-01-12T00:05:07.969Z,3.10
2023-01-12T00:06:12.271Z,4.40
2023-01-12T00:07:17.819Z,3.40
2023-01-12T00:08:21.493Z,3.60
2023-01-12T00:09:25.571Z,4.00
2023-01-12T00:10:29.309Z,3.00
2023-01-12T00:11:33.735Z,3.20
2023-01-12T00:12:37.499Z,2.70
2023-01-12T00:13:41.512Z,2.90
2023-01-12T00:14:45.198Z,3.70
2023-01-12T00:16:07.723Z,2.80
2023-01-12T00:17:14.244Z,3.10
2023-01-12T00:18:17.988Z,3.50
2023-01-12T00:19:23.299Z,3.90
2023-01-12T00:20:27.060Z,3.50
2023-01-12T00:22:00.150Z,4.20
2023-01-12T00:23:04.070Z,3.60
2023-01-12T00:24:08.613Z,4.50
2023-01-12T00:25:12.418Z,2.80
2023-01-12T00:26:16.061Z,3.10
2023-01-12T00:27:21.058Z,5.10
2023-01-12T00:28:24.686Z,5.10
2023-01-12T00:29:29.007Z,4.10
2023-01-12T00:30:32.679Z,2.30
2023-01-12T00:31:36.367Z,3.10
2023-01-12T00:32:40.049Z,2.90
2023-01-12T00:33:43.740Z,4.80
2023-01-12T00:34:47.543Z,3.40
2023-01-12T00:35:51.285Z,3.80
2023-01-12T00:36:55.275Z,3.80
2023-01-12T00:37:59.195Z,4.80
2023-01-12T00:39:03.709Z,5.10
2023-01-12T00:41:33.899Z,3.00
2023-01-12T00:42:56.339Z,3.40
2023-01-12T00:44:18.744Z,3.10
2023-01-12T00:45:22.713Z,3.40
2023-01-12T00:46:30.795Z,3.90
2023-01-12T00:47:35.462Z,1.80
2023-01-12T00:48:39.140Z,2.90
2023-01-12T00:49:43.787Z,3.30
2023-01-12T00:50:47.545Z,2.60
2023-01-12T00:51:51.235Z,5.40
2023-01-12T00:52:54.836Z,3.40
2023-01-12T00:54:04.387Z,3.60
2023-01-12T00:55:08.725Z,3.10
2023-01-12T00:56:12.386Z,4.10
2023-01-12T00:57:18.077Z,3.70
2023-01-12T00:58:21.714Z,3.40
2023-01-12T00:59:25.368Z,3.10
2023-01-12T01:00:29.131Z,3.20
2023-01-12T01:01:34.589Z,6.00
2023-01-12T01:02:38.440Z,3.10
2023-01-12T01:03:42.218Z,3.70
2023-01-12T01:04:45.955Z,3.40
2023-01-12T01:05:49.615Z,3.70
2023-01-12T01:06:53.348Z,2.70
2023-01-12T01:07:57.118Z,3.10
2023-01-12T01:09:00.738Z,2.90
2023-01-12T01:10:04.913Z,4.90
2023-01-12T01:11:11.496Z,5.80
2023-01-12T01:12:15.367Z,3.20
2023-01-12T01:13:19.062Z,3.70
2023-01-12T01:14:22.819Z,3.00
2023-01-12T01:15:26.597Z,4.30
2023-01-12T01:16:31.444Z,3.40
2023-01-12T01:17:35.684Z,3.80
2023-01-12T01:18:39.756Z,3.40
2023-01-12T01:19:43.761Z,3.60
2023-01-12T01:20:47.851Z,3.30
2023-01-12T01:21:51.594Z,5.40
2023-01-12T01:22:55.672Z,5.50
2023-01-12T01:23:59.578Z,3.70
2023-01-12T01:25:03.354Z,4.20
2023-01-12T01:26:16.984Z,4.80
2023-01-12T01:27:20.674Z,2.90
2023-01-12T01:28:24.368Z,4.00
2023-01-12T01:29:28.061Z,3.50
2023-01-12T01:30:31.679Z,3.30
2023-01-12T01:31:35.879Z,3.00
2023-01-12T01:32:39.571Z,3.90
2023-01-12T01:33:43.753Z,2.80
2023-01-12T01:34:48.198Z,3.70
2023-01-12T01:35:51.835Z,4.70
2023-01-12T01:36:55.544Z,3.00
2023-01-12T01:37:59.151Z,2.30
2023-01-12T01:39:02.879Z,4.90
2023-01-12T01:40:07.716Z,3.20
2023-01-12T01:41:22.563Z,3.50
2023-01-12T01:42:29.353Z,3.60
2023-01-12T01:43:59.446Z,3.10
2023-01-12T01:45:05.915Z,4.30
2023-01-12T01:46:13.486Z,3.50
2023-01-12T01:47:26.738Z,2.80
2023-01-12T01:48:33.901Z,4.60
2023-01-12T01:49:39.549Z,2.70
2023-01-12T01:50:53.834Z,3.40
2023-01-12T01:52:03.500Z,2.60
2023-01-12T01:53:11.302Z,3.20
2023-01-12T01:54:15.636Z,3.80
2023-01-12T01:55:29.782Z,4.70
2023-01-12T01:56:33.888Z,5.20
2023-01-12T01:57:56.712Z,4.70
2023-01-12T01:59:08.558Z,4.00
2023-01-12T02:00:13.333Z,3.00
2023-01-12T02:01:17.115Z,2.90
2023-01-12T02:02:22.550Z,3.00
2023-01-12T02:03:29.408Z,3.40
2023-01-12T02:04:33.318Z,3.30
2023-01-12T02:05:40.221Z,3.60
2023-01-12T02:06:43.973Z,2.70
2023-01-12T02:07:49.720Z,3.70
2023-01-12T02:09:00.402Z,3.90
2023-01-12T02:10:04.558Z,3.50
2023-01-12T02:11:28.660Z,3.00
2023-01-12T02:12:51.636Z,2.30
2023-01-12T02:14:13.821Z,3.00
2023-01-12T02:15:36.438Z,4.30
2023-01-12T02:16:58.155Z,3.40
2023-01-12T02:18:23.461Z,4.60
2023-01-12T02:19:55.615Z,2.30
2023-01-12T02:21:12.857Z,4.50
2023-01-12T02:23:39.430Z,2.50
2023-01-12T02:25:11.339Z,3.30
2023-01-12T02:26:35.826Z,3.30
2023-01-12T02:27:42.457Z,2.90
2023-01-12T02:29:10.547Z,1.90
2023-01-12T02:30:29.358Z,3.30
2023-01-12T02:31:59.545Z,3.60
2023-01-12T02:33:20.613Z,3.00
2023-01-12T02:34:51.788Z,3.70
2023-01-12T02:36:27.755Z,3.10
2023-01-12T02:37:43.618Z,2.30
2023-01-12T02:39:07.205Z,4.10
2023-01-12T02:40:25.079Z,3.90
2023-01-12T02:41:53.767Z,3.60
2023-01-12T02:43:42.680Z,3.20
2023-01-12T02:44:57.147Z,3.00
2023-01-12T02:46:23.171Z,4.20
2023-01-12T02:47:39.804Z,2.70
2023-01-12T02:49:01.104Z,2.60
2023-01-12T02:50:09.962Z,3.20
2023-01-12T02:51:29.358Z,3.00
2023-01-12T02:52:33.959Z,3.10
2023-01-12T02:54:49.378Z,3.90
2023-01-12T02:55:54.148Z,2.30
2023-01-12T02:57:03.135Z,2.90
2023-01-12T02:58:09.988Z,3.10
2023-01-12T02:59:27.087Z,5.30
2023-01-12T03:00:30.850Z,3.00
2023-01-12T03:01:36.892Z,4.60
2023-01-12T03:02:40.668Z,4.10
2023-01-12T03:03:46.715Z,3.10
2023-01-12T03:04:50.531Z,4.10
2023-01-12T03:05:58.660Z,2.70
2023-01-12T03:07:02.291Z,4.40
2023-01-12T03:08:06.564Z,2.90
2023-01-12T03:09:10.279Z,3.20
2023-01-12T03:10:41.410Z,3.10
2023-01-12T03:11:49.022Z,3.30
2023-01-12T03:12:55.016Z,3.50
2023-01-12T03:14:02.710Z,4.40
2023-01-12T03:15:09.607Z,4.80
2023-01-12T03:16:16.536Z,3.60
2023-01-12T03:17:27.511Z,2.60
2023-01-12T03:18:43.176Z,3.80
2023-01-12T03:19:48.041Z,3.00
2023-01-12T03:21:00.909Z,3.30
2023-01-12T03:22:08.082Z,4.40
2023-01-12T03:23:19.034Z,2.90
2023-01-12T03:24:28.748Z,4.90
2023-01-12T03:25:34.523Z,3.60
2023-01-12T03:26:49.281Z,3.80
2023-01-12T03:27:55.450Z,4.50
2023-01-12T03:29:10.056Z,3.40
2023-01-12T03:30:19.976Z,3.50
2023-01-12T03:31:24.620Z,3.10
2023-01-12T03:32:28.707Z,5.70
2023-01-12T03:33:32.458Z,3.80
2023-01-12T03:34:37.220Z,2.80
2023-01-12T03:36:07.860Z,3.40
2023-01-12T03:37:34.409Z,5.60
2023-01-12T03:39:03.090Z,3.10
2023-01-12T03:40:16.978Z,4.20
2023-01-12T03:41:33.230Z,4.20
2023-01-12T03:42:56.669Z,4.10
2023-01-12T03:44:04.099Z,4.40
2023-01-12T03:45:29.658Z,2.80
2023-01-12T03:46:44.967Z,2.80
2023-01-12T03:47:55.031Z,3.50
2023-01-12T03:49:19.299Z,4.80
2023-01-12T03:50:28.931Z,3.80
2023-01-12T03:51:38.452Z,3.40
2023-01-12T03:52:45.117Z,4.40
2023-01-12T03:53:50.670Z,3.50
2023-01-12T03:54:56.981Z,3.60
2023-01-12T03:56:07.420Z,3.10
2023-01-12T03:57:12.837Z,4.20
2023-01-12T03:58:17.555Z,3.00
2023-01-12T03:59:22.337Z,4.90
2023-01-12T04:00:27.599Z,3.40
2023-01-12T04:01:32.526Z,4.50
2023-01-12T04:02:36.223Z,3.80
2023-01-12T04:03:40.037Z,3.60
2023-01-12T04:04:43.815Z,3.80
2023-01-12T04:05:47.484Z,2.70
2023-01-12T04:06:51.234Z,3.50
2023-01-12T04:07:54.900Z,3.70
2023-01-12T04:08:58.606Z,5.50
2023-01-12T04:10:02.377Z,3.40
2023-01-12T04:11:25.903Z,4.70
2023-01-12T04:12:29.600Z,2.70
2023-01-12T04:13:33.234Z,4.10
2023-01-12T04:14:38.180Z,3.70
2023-01-12T04:15:44.759Z,4.20
2023-01-12T04:16:48.460Z,3.40
2023-01-12T04:17:52.073Z,4.30
2023-01-12T04:18:55.817Z,4.10
2023-01-12T04:19:59.510Z,3.50
2023-01-12T04:21:03.297Z,4.50
2023-01-12T04:22:26.144Z,4.00
2023-01-12T04:23:29.817Z,4.40
2023-01-12T04:24:33.373Z,3.10
2023-01-12T04:25:37.187Z,7.40
2023-01-12T04:26:40.873Z,3.30
2023-01-12T04:27:53.535Z,2.60
2023-01-12T04:28:57.155Z,4.20
2023-01-12T04:30:00.878Z,3.90
2023-01-12T04:31:04.555Z,2.70
2023-01-12T04:32:08.396Z,4.90
2023-01-12T04:33:12.129Z,4.50
2023-01-12T04:34:15.927Z,3.20
2023-01-12T04:35:19.870Z,3.40
2023-01-12T04:36:23.651Z,3.20
2023-01-12T04:37:27.266Z,4.10
2023-01-12T04:38:30.978Z,5.10
2023-01-12T04:39:34.662Z,2.80
2023-01-12T04:40:38.370Z,4.60
2023-01-12T04:41:42.076Z,2.90
2023-01-12T04:43:08.355Z,5.90
2023-01-12T04:44:12.405Z,4.20
2023-01-12T04:45:16.712Z,3.70
2023-01-12T04:46:20.366Z,3.40
2023-01-12T04:47:24.010Z,4.10
2023-01-12T04:48:27.710Z,3.80
2023-01-12T04:49:31.399Z,3.60
2023-01-12T04:50:35.159Z,2.90
2023-01-12T04:51:38.771Z,3.70
2023-01-12T04:52:42.432Z,3.50
2023-01-12T04:53:48.099Z,2.80
2023-01-12T04:54:51.687Z,3.00
2023-01-12T04:55:55.676Z,3.30
2023-01-12T04:56:59.350Z,2.80
2023-01-12T04:58:03.481Z,2.90
2023-01-12T04:59:09.756Z,4.70
2023-01-12T05:00:13.593Z,4.00
2023-01-12T05:01:19.649Z,5.00
2023-01-12T05:02:23.828Z,3.20
2023-01-12T05:03:27.634Z,3.10
2023-01-12T05:04:32.320Z,4.70
2023-01-12T05:05:36.181Z,4.00
2023-01-12T05:06:39.806Z,3.20
2023-01-12T05:08:03.388Z,3.60
2023-01-12T05:10:32.647Z,2.90
2023-01-12T05:11:36.405Z,3.30
2023-01-12T05:12:40.043Z,2.50
2023-01-12T05:13:43.662Z,3.10
2023-01-12T05:14:47.246Z,3.50
2023-01-12T05:15:50.900Z,4.10
2023-01-12T05:16:54.564Z,3.50
2023-01-12T05:17:58.331Z,3.30
2023-01-12T05:19:01.966Z,5.00
2023-01-12T05:20:06.304Z,3.00
2023-01-12T05:21:13.049Z,3.10
2023-01-12T05:22:16.772Z,5.20
2023-01-12T05:23:20.365Z,3.20
2023-01-12T05:24:24.155Z,3.10
2023-01-12T05:25:29.176Z,3.60
2023-01-12T05:26:32.856Z,3.40
2023-01-12T05:27:36.566Z,2.70
2023-01-12T05:28:40.971Z,2.90
2023-01-12T05:29:44.599Z,3.60
2023-01-12T05:30:48.375Z,3.40
2023-01-12T05:31:52.330Z,4.20
2023-01-12T05:32:56.080Z,3.40
2023-01-12T05:33:59.719Z,2.80
2023-01-12T05:35:04.255Z,2.80
2023-01-12T05:37:16.228Z,4.00
2023-01-12T05:38:19.894Z,4.20
2023-01-12T05:39:23.563Z,3.50
2023-01-12T05:40:27.513Z,4.50
2023-01-12T05:41:31.356Z,1.80
2023-01-12T05:42:53.765Z,4.60
2023-01-12T05:43:57.401Z,6.10
2023-01-12T05:45:01.163Z,3.20
2023-01-12T05:46:06.268Z,4.30
2023-01-12T05:47:09.996Z,3.30
2023-01-12T05:48:13.757Z,3.60
2023-01-12T05:49:17.481Z,2.90
2023-01-12T05:50:21.188Z,3.00
2023-01-12T05:51:31.069Z,3.20
2023-01-12T05:52:34.782Z,3.30
2023-01-12T05:53:39.069Z,3.20
2023-01-12T05:54:42.784Z,3.00
2023-01-12T05:55:46.502Z,2.90
2023-01-12T05:56:51.150Z,3.30
2023-01-12T05:59:00.997Z,3.60
2023-01-12T06:00:05.458Z,3.90
2023-01-12T06:01:16.260Z,3.30
2023-01-12T06:02:21.646Z,3.90
2023-01-12T06:03:27.305Z,2.70
2023-01-12T06:04:31.731Z,4.20
2023-01-12T06:05:35.483Z,4.20
2023-01-12T06:06:39.155Z,2.90
2023-01-12T06:07:42.993Z,4.20
2023-01-12T06:08:47.131Z,3.40
2023-01-12T06:09:50.878Z,3.60
2023-01-12T06:10:54.537Z,3.30
2023-01-12T06:12:17.111Z,4.60
2023-01-12T06:13:39.231Z,4.30
2023-01-12T06:14:42.895Z,3.10
2023-01-12T06:15:46.724Z,3.80
2023-01-12T06:16:50.527Z,4.70
2023-01-12T06:17:56.603Z,2.60
2023-01-12T06:19:01.075Z,3.90
2023-01-12T06:20:06.600Z,4.00
2023-01-12T06:21:10.840Z,2.90
2023-01-12T06:22:14.647Z,4.20
2023-01-12T06:23:18.299Z,3.70
2023-01-12T06:24:22.123Z,2.90
2023-01-12T06:25:25.840Z,3.00
2023-01-12T06:26:29.540Z,4.50
2023-01-12T06:27:35.306Z,4.40
2023-01-12T06:28:40.833Z,3.00
2023-01-12T06:29:44.702Z,4.00
2023-01-12T06:30:59.314Z,2.80
2023-01-12T06:32:03.213Z,2.80
2023-01-12T06:33:06.893Z,3.80
2023-01-12T06:34:12.031Z,2.90
2023-01-12T06:35:19.419Z,3.10
2023-01-12T06:36:23.598Z,3.10
2023-01-12T06:37:27.400Z,3.90
2023-01-12T06:38:32.975Z,3.50
2023-01-12T06:39:36.712Z,3.10
2023-01-12T06:40:40.348Z,2.90
2023-01-12T06:42:02.321Z,3.30
2023-01-12T06:43:06.022Z,2.60
2023-01-12T06:44:09.980Z,3.10
2023-01-12T06:45:14.004Z,3.70
2023-01-12T06:46:17.671Z,2.30
2023-01-12T06:47:22.033Z,2.80
2023-01-12T06:48:26.327Z,3.20
2023-01-12T06:49:42.888Z,7.00
2023-01-12T06:50:46.505Z,3.30
2023-01-12T06:51:51.647Z,2.40
2023-01-12T06:53:03.092Z,3.50
2023-01-12T06:54:06.804Z,2.50
2023-01-12T06:55:10.840Z,3.90
2023-01-12T06:56:14.555Z,3.40
2023-01-12T06:57:18.545Z,4.40
2023-01-12T06:58:22.300Z,4.20
2023-01-12T06:59:26.012Z,3.50
2023-01-12T07:00:30.231Z,2.80
2023-01-12T07:01:34.102Z,2.60
2023-01-12T07:02:37.726Z,2.80
2023-01-12T07:03:41.492Z,3.10
2023-01-12T07:04:45.468Z,3.30
2023-01-12T07:05:49.164Z,3.10
2023-01-12T07:06:56.660Z,2.70
2023-01-12T07:08:00.544Z,2.90
2023-01-12T07:09:06.061Z,3.70
2023-01-12T07:10:13.521Z,4.30
2023-01-12T07:11:18.408Z,4.00
2023-01-12T07:12:22.187Z,3.90
2023-01-12T07:13:25.838Z,3.30
2023-01-12T07:14:29.496Z,3.70
2023-01-12T07:15:33.210Z,3.80
2023-01-12T07:16:36.938Z,4.20
2023-01-12T07:17:42.214Z,2.70
2023-01-12T07:18:47.172Z,4.10
2023-01-12T07:19:50.916Z,3.30
2023-01-12T07:20:54.541Z,3.60
2023-01-12T07:21:58.168Z,4.10
2023-01-12T07:23:02.302Z,3.30
2023-01-12T07:24:06.340Z,4.20
2023-01-12T07:25:10.139Z,4.00
2023-01-12T07:26:14.145Z,4.20
2023-01-12T07:27:17.918Z,3.00
2023-01-12T07:28:21.583Z,3.80
2023-01-12T07:29:25.436Z,4.50
2023-01-12T07:30:29.332Z,3.50
2023-01-12T07:31:33.342Z,3.00
2023-01-12T07:32:37.370Z,2.40
2023-01-12T07:33:41.167Z,2.80
2023-01-12T07:34:45.519Z,3.10
2023-01-12T07:35:49.166Z,3.30
2023-01-12T07:36:52.847Z,4.60
2023-01-12T07:37:56.447Z,2.70
2023-01-12T07:39:00.787Z,2.30
2023-01-12T07:40:05.005Z,2.70
2023-01-12T07:41:28.810Z,3.40
2023-01-12T07:42:38.066Z,2.60
2023-01-12T07:43:42.035Z,3.10
2023-01-12T07:44:45.737Z,2.60
2023-01-12T07:45:49.616Z,2.30
2023-01-12T07:46:53.414Z,2.50
2023-01-12T07:47:57.288Z,3.60
2023-01-12T07:49:01.363Z,2.30
2023-01-12T07:50:06.343Z,2.40
2023-01-12T07:51:09.995Z,1.90
2023-01-12T07:52:14.664Z,4.80
2023-01-12T07:53:19.640Z,3.50
2023-01-12T07:54:23.527Z,2.70
2023-01-12T07:55:28.791Z,2.40
2023-01-12T07:56:32.591Z,3.00
2023-01-12T07:57:37.311Z,3.30
2023-01-12T07:59:44.688Z,3.40
2023-01-12T08:00:48.389Z,3.60
2023-01-12T08:01:53.948Z,2.10
2023-01-12T08:03:06.061Z,3.20
2023-01-12T08:04:09.859Z,2.50
2023-01-12T08:05:13.639Z,3.60
2023-01-12T08:06:18.333Z,2.50
2023-01-12T08:07:22.200Z,2.30
2023-01-12T08:08:25.878Z,2.30
2023-01-12T08:09:29.604Z,2.30
2023-01-12T08:10:33.802Z,2.20
2023-01-12T08:11:38.072Z,2.40
2023-01-12T08:12:42.096Z,2.40
2023-01-12T08:13:45.905Z,2.80
2023-01-12T08:14:49.535Z,2.00
2023-01-12T08:15:54.738Z,2.60
2023-01-12T08:17:01.621Z,3.80
2023-01-12T08:18:12.825Z,2.30
2023-01-12T08:19:21.525Z,2.70
2023-01-12T08:20:32.553Z,2.30
2023-01-12T08:21:45.897Z,2.00
2023-01-12T08:22:53.304Z,2.80
2023-01-12T08:24:00.363Z,2.60
2023-01-12T08:25:09.551Z,2.00
2023-01-12T08:26:25.351Z,2.20
2023-01-12T08:27:32.760Z,2.20
2023-01-12T08:28:39.476Z,1.70
2023-01-12T08:29:47.363Z,2.90
2023-01-12T08:30:52.271Z,1.70
2023-01-12T08:32:04.594Z,1.50
2023-01-12T08:33:08.769Z,2.00
2023-01-12T08:34:12.632Z,2.40
2023-01-12T08:35:21.447Z,2.30
2023-01-12T08:36:26.295Z,1.90
2023-01-12T08:37:32.496Z,2.40
2023-01-12T08:38:36.403Z,2.80
2023-01-12T08:39:40.240Z,1.60
2023-01-12T08:41:02.511Z,1.60
2023-01-12T08:42:06.428Z,1.80
2023-01-12T08:43:10.116Z,1.60
2023-01-12T08:44:15.198Z,1.30
2023-01-12T08:45:20.787Z,1.30
2023-01-12T08:46:24.661Z,1.60
2023-01-12T08:47:30.382Z,2.00
2023-01-12T08:48:35.919Z,1.60
2023-01-12T08:49:39.713Z,2.20
2023-01-12T08:50:43.471Z,2.20
2023-01-12T08:51:50.081Z,1.90
2023-01-12T08:52:53.766Z,1.90
2023-01-12T08:53:57.464Z,2.10
2023-01-12T08:55:01.091Z,2.10
2023-01-12T08:56:05.040Z,1.90
2023-01-12T08:57:08.761Z,1.70
2023-01-12T08:58:13.024Z,1.40
2023-01-12T08:59:19.047Z,0.90
2023-01-12T09:00:25.531Z,1.90
2023-01-12T09:01:29.534Z,1.30
2023-01-12T09:02:33.561Z,2.30
2023-01-12T09:03:38.696Z,1.70
2023-01-12T09:04:42.589Z,1.10
2023-01-12T09:05:47.847Z,1.50
2023-01-12T09:06:52.150Z,1.20
2023-01-12T09:07:55.913Z,1.20
2023-01-12T09:09:02.112Z,1.80
2023-01-12T09:10:06.531Z,1.80
2023-01-12T09:11:11.895Z,1.20
2023-01-12T09:12:15.604Z,2.20
2023-01-12T09:13:19.272Z,1.60
2023-01-12T09:14:22.885Z,1.20
2023-01-12T09:15:26.734Z,1.60
2023-01-12T09:16:31.740Z,2.10
2023-01-12T09:17:35.409Z,1.30
2023-01-12T09:18:39.466Z,1.90
2023-01-12T09:19:44.577Z,1.70
2023-01-12T09:20:48.411Z,1.40
2023-01-12T09:21:52.092Z,1.20
2023-01-12T09:22:55.787Z,1.40
2023-01-12T09:23:59.675Z,1.40
2023-01-12T09:25:03.533Z,1.40
2023-01-12T09:26:12.816Z,1.80
2023-01-12T09:27:16.651Z,1.10
2023-01-12T09:28:20.390Z,1.50
2023-01-12T09:29:24.032Z,1.70
2023-01-12T09:30:27.648Z,2.10
2023-01-12T09:31:32.805Z,1.70
2023-01-12T09:32:37.190Z,1.40
2023-01-12T09:33:41.714Z,1.20
2023-01-12T09:34:48.408Z,2.10
2023-01-12T09:35:52.097Z,6.00
2023-01-12T09:36:57.173Z,2.10
2023-01-12T09:38:00.891Z,1.80
2023-01-12T09:39:12.755Z,1.80
2023-01-12T09:40:19.501Z,2.50
2023-01-12T09:41:44.903Z,2.00
2023-01-12T09:43:09.226Z,1.40
2023-01-12T09:44:40.194Z,1.50
2023-01-12T09:46:03.117Z,1.50
2023-01-12T09:47:18.325Z,1.10
2023-01-12T09:48:23.301Z,2.40
2023-01-12T09:49:32.308Z,2.20
2023-01-12T09:51:16.881Z,1.40
2023-01-12T09:52:28.584Z,1.00
2023-01-12T09:53:36.658Z,1.40
2023-01-12T09:54:40.587Z,1.80
2023-01-12T09:55:49.997Z,1.60
2023-01-12T09:57:04.507Z,2.20
2023-01-12T09:58:45.331Z,1.70
2023-01-12T10:00:13.802Z,1.80
2023-01-12T10:01:28.884Z,1.60
2023-01-12T10:02:35.435Z,1.20
2023-01-12T10:03:42.151Z,2.10
2023-01-12T10:04:49.193Z,1.40
2023-01-12T10:05:58.082Z,2.20
2023-01-12T10:07:01.977Z,2.70
2023-01-12T10:08:09.374Z,1.40
2023-01-12T10:09:19.122Z,1.40
2023-01-12T10:10:25.170Z,1.50
2023-01-12T10:11:59.418Z,1.30
2023-01-12T10:13:07.192Z,2.10
2023-01-12T10:14:32.654Z,2.00
2023-01-12T10:15:56.033Z,1.50
2023-01-12T10:17:50.409Z,1.70
2023-01-12T10:19:01.077Z,1.90
2023-01-12T10:20:28.880Z,2.00
2023-01-12T10:21:32.846Z,2.20
2023-01-12T10:22:53.901Z,2.10
2023-01-12T10:23:57.660Z,2.00
2023-01-12T10:25:01.431Z,3.30
2023-01-12T10:26:33.441Z,2.90
2023-01-12T10:27:42.867Z,1.50
2023-01-12T10:28:47.709Z,1.70
2023-01-12T10:29:51.993Z,2.60
2023-01-12T10:30:56.868Z,1.70
2023-01-12T10:32:00.730Z,1.60
2023-01-12T10:33:14.579Z,2.50
2023-01-12T10:34:18.699Z,2.10
2023-01-12T10:35:25.082Z,2.70
2023-01-12T10:36:30.193Z,2.50
2023-01-12T10:37:43.781Z,2.30
2023-01-12T10:39:03.496Z,2.20
2023-01-12T10:40:23.631Z,2.10
2023-01-12T10:41:28.554Z,1.90
2023-01-12T10:42:50.936Z,2.30
2023-01-12T10:44:00.462Z,2.70
2023-01-12T10:45:09.976Z,2.40
2023-01-12T10:46:15.237Z,3.10
2023-01-12T10:47:22.151Z,2.50
2023-01-12T10:48:26.819Z,3.30
2023-01-12T10:51:48.937Z,2.00
2023-01-12T10:53:07.157Z,2.00
2023-01-12T10:54:19.528Z,1.60
2023-01-12T10:55:24.236Z,2.60
2023-01-12T10:56:39.335Z,1.80
2023-01-12T10:57:44.700Z,2.00
2023-01-12T10:59:06.351Z,1.90
2023-01-12T11:00:24.173Z,2.30
2023-01-12T11:01:46.399Z,1.40
2023-01-12T11:02:50.647Z,1.50
2023-01-12T11:04:04.523Z,2.70
2023-01-12T11:05:30.499Z,3.20
2023-01-12T11:06:34.307Z,1.30
2023-01-12T11:07:49.432Z,2.20
2023-01-12T11:08:54.491Z,1.70
2023-01-12T11:10:36.507Z,1.50
2023-01-12T11:11:40.407Z,1.90
2023-01-12T11:12:54.986Z,2.10
2023-01-12T11:14:04.456Z,2.90
2023-01-12T11:15:11.955Z,1.30
2023-01-12T11:16:25.087Z,1.70
2023-01-12T11:17:39.372Z,2.10
2023-01-12T11:19:07.008Z,2.00
2023-01-12T11:20:27.448Z,2.00
2023-01-12T11:21:36.740Z,3.10
2023-01-12T11:22:43.224Z,1.90
2023-01-12T11:24:17.440Z,3.50
2023-01-12T11:25:25.872Z,1.40
2023-01-12T11:26:55.377Z,2.80
2023-01-12T11:28:10.626Z,2.10
2023-01-12T11:29:33.320Z,2.20
2023-01-12T11:30:44.373Z,1.70
2023-01-12T11:33:00.041Z,1.90
2023-01-12T11:34:16.908Z,1.80
2023-01-12T11:35:26.541Z,1.80
2023-01-12T11:36:34.931Z,1.60
2023-01-12T11:37:42.573Z,2.80
2023-01-12T11:38:52.547Z,2.00
2023-01-12T11:40:06.268Z,1.60
2023-01-12T11:41:19.422Z,1.60
2023-01-12T11:42:46.569Z,1.40
2023-01-12T11:44:22.736Z,2.20
2023-01-12T11:45:41.184Z,1.60
2023-01-12T11:46:52.105Z,1.60
2023-01-12T11:48:02.916Z,1.70
2023-01-12T11:49:32.949Z,2.30
2023-01-12T11:51:42.858Z,1.80
2023-01-12T11:52:46.647Z,1.00
2023-01-12T11:53:52.582Z,1.50
2023-01-12T11:54:56.497Z,2.50
2023-01-12T11:56:34.378Z,1.40
2023-01-12T11:57:55.779Z,2.20
2023-01-12T11:59:11.205Z,1.50
2023-01-12T12:00:39.695Z,0.80
2023-01-12T12:02:04.381Z,0.50
2023-01-12T12:03:55.365Z,1.40
2023-01-12T12:05:04.402Z,1.30
2023-01-12T12:06:22.965Z,2.00
2023-01-12T12:07:46.514Z,1.10
2023-01-12T12:09:16.574Z,1.80
2023-01-12T12:10:39.494Z,1.20
2023-01-12T12:12:03.859Z,1.90
2023-01-12T12:13:34.295Z,1.00
2023-01-12T12:15:11.075Z,1.20
2023-01-12T12:16:33.878Z,1.90
2023-01-12T12:17:52.308Z,1.10
2023-01-12T12:19:17.940Z,1.10
2023-01-12T12:20:42.039Z,1.10
2023-01-12T12:21:56.696Z,1.10
2023-01-12T12:23:41.481Z,1.10
2023-01-12T12:25:23.953Z,1.90
2023-01-12T12:26:38.238Z,1.30
2023-01-12T12:28:07.436Z,1.40
2023-01-12T12:29:29.233Z,1.30
2023-01-12T12:31:10.508Z,1.20
2023-01-12T12:32:38.188Z,1.00
2023-01-12T12:34:17.289Z,0.90
2023-01-12T12:35:52.580Z,1.90
2023-01-12T12:37:06.636Z,2.20
2023-01-12T12:38:33.198Z,1.00
2023-01-12T12:39:47.942Z,0.90
2023-01-12T12:41:22.518Z,1.20
2023-01-12T12:43:01.985Z,2.70
2023-01-12T12:44:32.614Z,1.80
2023-01-12T12:45:43.672Z,1.30
2023-01-12T12:46:58.520Z,0.90
2023-01-12T12:48:12.293Z,1.70
2023-01-12T12:49:22.238Z,2.20
2023-01-12T12:50:45.493Z,1.60
2023-01-12T12:51:50.138Z,1.10
2023-01-12T12:53:21.432Z,0.90
2023-01-12T12:54:26.880Z,0.80
2023-01-12T12:55:31.331Z,1.10
2023-01-12T12:56:36.764Z,1.30
2023-01-12T12:58:04.970Z,1.00
2023-01-12T12:59:31.608Z,1.20
2023-01-12T13:00:40.532Z,0.90
2023-01-12T13:01:55.013Z,1.00
2023-01-12T13:02:59.977Z,1.50
2023-01-12T13:04:06.073Z,1.60
2023-01-12T13:05:10.270Z,1.70
2023-01-12T13:06:29.372Z,1.80
2023-01-12T13:07:36.885Z,1.30
2023-01-12T13:08:40.906Z,2.00
2023-01-12T13:09:46.173Z,1.30
2023-01-12T13:10:58.615Z,0.90
2023-01-12T13:12:02.213Z,1.00
2023-01-12T13:13:24.513Z,1.00
2023-01-12T13:14:36.787Z,1.10
2023-01-12T13:15:40.875Z,1.10
2023-01-12T13:16:52.669Z,1.60
2023-01-12T13:17:56.661Z,1.00
2023-01-12T13:19:00.283Z,1.40
2023-01-12T13:20:16.732Z,1.00
2023-01-12T13:21:26.828Z,1.30
2023-01-12T13:22:48.656Z,1.10
2023-01-12T13:23:54.392Z,1.20
2023-01-12T13:25:01.086Z,1.70
2023-01-12T13:26:24.497Z,1.30
2023-01-12T13:28:10.816Z,0.80
2023-01-12T13:29:23.456Z,1.30
2023-01-12T13:30:29.813Z,1.00
2023-01-12T13:31:33.686Z,1.20
2023-01-12T13:33:15.627Z,1.30
2023-01-12T13:35:33.229Z,0.80
2023-01-12T13:36:36.893Z,0.80
2023-01-12T13:37:51.458Z,0.70
2023-01-12T13:39:06.024Z,0.90
2023-01-12T13:40:22.325Z,1.00
2023-01-12T13:41:56.213Z,1.10
2023-01-12T13:43:16.946Z,0.80
2023-01-12T13:44:34.471Z,0.60
2023-01-12T13:45:39.264Z,1.30
2023-01-12T13:46:47.471Z,0.90
2023-01-12T13:47:53.588Z,0.80
2023-01-12T13:48:57.386Z,1.20
2023-01-12T13:50:02.526Z,1.00
2023-01-12T13:51:36.981Z,1.50
2023-01-12T13:52:40.786Z,1.60
2023-01-12T13:53:56.661Z,1.00
2023-01-12T13:55:00.908Z,1.80
2023-01-12T13:56:06.783Z,0.80
2023-01-12T13:57:19.237Z,1.00
2023-01-12T13:58:23.179Z,1.10
2023-01-12T13:59:28.094Z,1.10
2023-01-12T14:00:35.769Z,0.50
2023-01-12T14:01:40.109Z,0.70
2023-01-12T14:02:43.889Z,0.70
2023-01-12T14:04:01.370Z,1.30
2023-01-12T14:05:08.298Z,0.90
2023-01-12T14:07:06.571Z,0.70
2023-01-12T14:08:22.002Z,0.80
2023-01-12T14:09:28.521Z,0.90
2023-01-12T14:10:48.303Z,1.10
2023-01-12T14:12:07.834Z,0.80
2023-01-12T14:13:14.619Z,1.00
2023-01-12T14:14:55.197Z,0.50
2023-01-12T14:16:19.710Z,1.10
2023-01-12T14:17:48.107Z,0.50
2023-01-12T14:18:51.870Z,0.70
2023-01-12T14:19:55.621Z,0.80
2023-01-12T14:20:59.763Z,0.70
2023-01-12T14:22:04.976Z,0.60
2023-01-12T14:23:18.407Z,1.50
2023-01-12T14:24:27.056Z,1.60
2023-01-12T14:25:30.811Z,1.80
2023-01-12T14:26:35.275Z,1.50
2023-01-12T14:27:39.166Z,1.00
2023-01-12T14:28:47.669Z,0.70
2023-01-12T14:29:51.389Z,1.10
2023-01-12T14:30:56.336Z,1.00
2023-01-12T14:32:00.135Z,1.00
2023-01-12T14:33:03.935Z,1.00
2023-01-12T14:34:26.458Z,0.80
2023-01-12T14:35:31.305Z,0.90
2023-01-12T14:36:43.976Z,1.00
2023-01-12T14:37:55.076Z,0.70
2023-01-12T14:38:59.745Z,0.70
2023-01-12T14:40:03.913Z,1.00
2023-01-12T14:41:36.347Z,1.00
2023-01-12T14:42:58.852Z,0.70
2023-01-12T14:44:21.227Z,0.60
2023-01-12T14:45:45.293Z,1.00
2023-01-12T14:46:52.587Z,0.60
2023-01-12T14:48:22.246Z,0.90
2023-01-12T14:49:28.550Z,0.80
2023-01-12T14:50:32.286Z,0.70
2023-01-12T14:51:36.792Z,1.40
2023-01-12T14:53:48.125Z,0.90
2023-01-12T14:54:52.275Z,0.80
2023-01-12T14:56:26.107Z,0.70
2023-01-12T14:57:35.257Z,1.30
2023-01-12T14:58:38.949Z,0.70
2023-01-12T14:59:46.202Z,0.80
2023-01-12T15:00:50.176Z,0.80
2023-01-12T15:02:19.346Z,0.80
2023-01-12T15:03:35.109Z,0.70
2023-01-12T15:05:06.829Z,0.80
2023-01-12T15:06:14.978Z,1.10
2023-01-12T15:07:20.503Z,1.10
2023-01-12T15:08:31.011Z,0.60
2023-01-12T15:09:37.095Z,0.80
2023-01-12T15:10:43.370Z,1.20
2023-01-12T15:11:47.106Z,0.70
2023-01-12T15:12:54.200Z,1.70
2023-01-12T15:13:59.496Z,0.90
2023-01-12T15:15:25.155Z,0.80
2023-01-12T15:16:47.467Z,0.80
2023-01-12T15:18:11.926Z,0.90
2023-01-12T15:19:33.855Z,0.70
2023-01-12T15:20:59.906Z,1.20
2023-01-12T15:22:24.319Z,0.70
2023-01-12T15:23:52.652Z,1.10
2023-01-12T15:25:15.135Z,0.80
2023-01-12T15:26:19.802Z,1.40
2023-01-12T15:27:24.458Z,0.80
2023-01-12T15:28:30.173Z,1.30
2023-01-12T15:29:34.297Z,0.70
2023-01-12T15:30:38.802Z,1.30
2023-01-12T15:32:48.321Z,1.10
2023-01-12T15:33:52.879Z,0.50
2023-01-12T15:34:57.690Z,0.70
2023-01-12T15:36:01.320Z,0.90
2023-01-12T15:37:05.112Z,0.60
2023-01-12T15:38:13.322Z,0.80
2023-01-12T15:39:17.249Z,0.80
2023-01-12T15:40:23.402Z,0.90
2023-01-12T15:41:49.176Z,1.10
2023-01-12T15:42:53.553Z,0.40
2023-01-12T15:43:57.393Z,1.20
2023-01-12T15:45:01.566Z,0.60
2023-01-12T15:46:05.391Z,0.60